sensor_id;sensor_type;location;lat;lon;timestamp;pressure;altitude;pressure_sealevel;temperature;humidity
5138;BME280;53959;53.626;11.410;2023-04-24T00:01:39;99536.97;;;12.43;63.89
5138;BME280;53959;53.626;11.410;2023-04-24T00:04:05;99543.16;;;12.44;63.78
5138;BME280;53959;53.626;11.410;2023-04-24T00:06:32;99536.25;;;12.39;63.90
5138;BME280;53959;53.626;11.410;2023-04-24T00:09:03;99537.13;;;12.40;63.84
5138;BME280;53959;53.626;11.410;2023-04-24T00:11:29;99531.63;;;12.43;63.51
5138;BME280;53959;53.626;11.410;2023-04-24T00:13:55;99527.25;;;12.42;63.71
5138;BME280;53959;53.626;11.410;2023-04-24T00:16:21;99522.69;;;12.44;63.75
5138;BME280;53959;53.626;11.410;2023-04-24T00:18:46;99522.69;;;12.44;63.60
5138;BME280;53959;53.626;11.410;2023-04-24T00:21:13;99508.63;;;12.42;63.36
5138;BME280;53959;53.626;11.410;2023-04-24T00:23:40;99504.91;;;12.45;63.09
5138;BME280;53959;53.626;11.410;2023-04-24T00:26:05;99495.91;;;12.47;63.22
5138;BME280;53959;53.626;11.410;2023-04-24T00:28:30;99504.16;;;12.43;63.36
5138;BME280;53959;53.626;11.410;2023-04-24T00:30:56;99489.13;;;12.42;63.30
5138;BME280;53959;53.626;11.410;2023-04-24T00:33:21;99482.69;;;12.46;63.17
5138;BME280;53959;53.626;11.410;2023-04-24T00:35:46;99487.31;;;12.42;63.65
5138;BME280;53959;53.626;11.410;2023-04-24T00:38:12;99493.56;;;12.41;63.32
5138;BME280;53959;53.626;11.410;2023-04-24T00:40:37;99481.75;;;12.47;63.25
5138;BME280;53959;53.626;11.410;2023-04-24T00:43:02;99484.41;;;12.47;63.15
5138;BME280;53959;53.626;11.410;2023-04-24T00:45:28;99486.91;;;12.50;63.20
5138;BME280;53959;53.626;11.410;2023-04-24T00:47:56;99480.50;;;12.54;62.84
5138;BME280;53959;53.626;11.410;2023-04-24T00:50:23;99476.81;;;12.56;62.92
5138;BME280;53959;53.626;11.410;2023-04-24T00:52:49;99472.25;;;12.58;62.90
5138;BME280;53959;53.626;11.410;2023-04-24T00:55:15;99461.69;;;12.57;62.97
5138;BME280;53959;53.626;11.410;2023-04-24T00:57:43;99459.63;;;12.62;63.05
5138;BME280;53959;53.626;11.410;2023-04-24T01:00:09;99457.22;;;12.57;63.12
5138;BME280;53959;53.626;11.410;2023-04-24T01:02:39;99471.28;;;12.59;63.17
5138;BME280;53959;53.626;11.410;2023-04-24T01:05:09;99502.50;;;12.57;63.17
5138;BME280;53959;53.626;11.410;2023-04-24T01:07:35;99529.28;;;12.54;63.61
5138;BME280;53959;53.626;11.410;2023-04-24T01:10:01;99524.25;;;12.48;64.15
5138;BME280;53959;53.626;11.410;2023-04-24T01:12:26;99535.63;;;12.52;64.05
5138;BME280;53959;53.626;11.410;2023-04-24T01:14:52;99540.38;;;12.62;63.92
5138;BME280;53959;53.626;11.410;2023-04-24T01:17:18;99517.22;;;12.64;63.83
5138;BME280;53959;53.626;11.410;2023-04-24T01:19:43;99520.75;;;12.65;63.32
5138;BME280;53959;53.626;11.410;2023-04-24T01:22:13;99529.69;;;12.64;64.28
5138;BME280;53959;53.626;11.410;2023-04-24T01:24:40;99515.72;;;12.59;66.22
5138;BME280;53959;53.626;11.410;2023-04-24T01:27:07;99519.88;;;12.47;67.04
5138;BME280;53959;53.626;11.410;2023-04-24T01:29:33;99515.59;;;12.27;69.75
5138;BME280;53959;53.626;11.410;2023-04-24T01:31:59;99512.06;;;12.09;70.57
5138;BME280;53959;53.626;11.410;2023-04-24T01:34:25;99511.34;;;12.06;71.83
5138;BME280;53959;53.626;11.410;2023-04-24T01:36:51;99501.88;;;12.00;72.14
5138;BME280;53959;53.626;11.410;2023-04-24T01:39:16;99496.06;;;11.92;72.51
5138;BME280;53959;53.626;11.410;2023-04-24T01:41:42;99495.53;;;11.85;73.05
5138;BME280;53959;53.626;11.410;2023-04-24T01:44:07;99503.97;;;11.94;73.21
5138;BME280;53959;53.626;11.410;2023-04-24T01:46:34;99492.25;;;11.98;73.51
5138;BME280;53959;53.626;11.410;2023-04-24T01:49:01;99484.56;;;11.91;73.59
5138;BME280;53959;53.626;11.410;2023-04-24T01:51:26;99488.16;;;11.90;73.35
5138;BME280;53959;53.626;11.410;2023-04-24T01:53:52;99486.22;;;11.94;73.78
5138;BME280;53959;53.626;11.410;2023-04-24T01:56:20;99482.84;;;11.90;73.73
5138;BME280;53959;53.626;11.410;2023-04-24T01:58:46;99486.44;;;11.89;74.87
5138;BME280;53959;53.626;11.410;2023-04-24T02:01:18;99482.34;;;11.82;74.76
5138;BME280;53959;53.626;11.410;2023-04-24T02:03:46;99477.53;;;11.90;74.80
5138;BME280;53959;53.626;11.410;2023-04-24T02:06:12;99480.34;;;11.87;74.02
5138;BME280;53959;53.626;11.410;2023-04-24T02:08:37;99483.13;;;11.84;73.48
5138;BME280;53959;53.626;11.410;2023-04-24T02:11:03;99483.94;;;11.86;73.36
5138;BME280;53959;53.626;11.410;2023-04-24T02:13:30;99475.16;;;11.84;73.38
5138;BME280;53959;53.626;11.410;2023-04-24T02:15:55;99480.78;;;11.78;73.33
5138;BME280;53959;53.626;11.410;2023-04-24T02:18:22;99471.38;;;11.71;73.34
5138;BME280;53959;53.626;11.410;2023-04-24T02:20:47;99468.84;;;11.68;73.50
5138;BME280;53959;53.626;11.410;2023-04-24T02:23:13;99465.25;;;11.69;73.73
5138;BME280;53959;53.626;11.410;2023-04-24T02:25:38;99469.00;;;11.65;73.74
5138;BME280;53959;53.626;11.410;2023-04-24T02:28:04;99464.63;;;11.64;73.53
5138;BME280;53959;53.626;11.410;2023-04-24T02:30:29;99463.13;;;11.58;73.70
5138;BME280;53959;53.626;11.410;2023-04-24T02:32:54;99463.06;;;11.60;73.61
5138;BME280;53959;53.626;11.410;2023-04-24T02:35:20;99465.72;;;11.60;73.45
5138;BME280;53959;53.626;11.410;2023-04-24T02:37:45;99461.72;;;11.51;73.48
5138;BME280;53959;53.626;11.410;2023-04-24T02:40:11;99463.56;;;11.49;73.40
5138;BME280;53959;53.626;11.410;2023-04-24T02:42:37;99462.84;;;11.46;73.55
5138;BME280;53959;53.626;11.410;2023-04-24T02:45:02;99456.53;;;11.48;73.52
5138;BME280;53959;53.626;11.410;2023-04-24T02:47:28;99459.56;;;11.40;73.44
5138;BME280;53959;53.626;11.410;2023-04-24T02:49:53;99458.72;;;11.40;73.57
5138;BME280;53959;53.626;11.410;2023-04-24T02:52:19;99452.38;;;11.42;73.32
5138;BME280;53959;53.626;11.410;2023-04-24T02:54:44;99452.38;;;11.42;73.18
5138;BME280;53959;53.626;11.410;2023-04-24T02:57:10;99452.50;;;11.39;73.31
5138;BME280;53959;53.626;11.410;2023-04-24T02:59:38;99443.75;;;11.37;73.39
5138;BME280;53959;53.626;11.410;2023-04-24T03:02:03;99453.09;;;11.27;73.77
5138;BME280;53959;53.626;11.410;2023-04-24T03:04:29;99447.28;;;11.38;73.34
5138;BME280;53959;53.626;11.410;2023-04-24T03:06:54;99450.94;;;11.35;73.16
5138;BME280;53959;53.626;11.410;2023-04-24T03:09:21;99443.41;;;11.26;73.79
5138;BME280;53959;53.626;11.410;2023-04-24T03:11:47;99445.22;;;11.26;73.67
5138;BME280;53959;53.626;11.410;2023-04-24T03:14:13;99444.38;;;11.25;73.48
5138;BME280;53959;53.626;11.410;2023-04-24T03:16:39;99452.63;;;11.19;73.67
5138;BME280;53959;53.626;11.410;2023-04-24T03:19:05;99446.59;;;11.15;73.29
5138;BME280;53959;53.626;11.410;2023-04-24T03:21:34;99448.03;;;11.04;74.08
5138;BME280;53959;53.626;11.410;2023-04-24T03:24:01;99450.41;;;11.10;73.97
5138;BME280;53959;53.626;11.410;2023-04-24T03:26:26;99446.34;;;11.20;73.78
5138;BME280;53959;53.626;11.410;2023-04-24T03:29:03;99438.69;;;11.14;73.73
5138;BME280;53959;53.626;11.410;2023-04-24T03:31:28;99446.00;;;11.09;73.78
5138;BME280;53959;53.626;11.410;2023-04-24T03:33:54;99448.66;;;11.09;73.73
5138;BME280;53959;53.626;11.410;2023-04-24T03:36:20;99443.28;;;11.10;73.85
5138;BME280;53959;53.626;11.410;2023-04-24T03:38:45;99443.00;;;10.98;74.21
5138;BME280;53959;53.626;11.410;2023-04-24T03:41:21;99439.19;;;11.03;73.94
5138;BME280;53959;53.626;11.410;2023-04-24T03:43:50;99430.66;;;10.97;73.90
5138;BME280;53959;53.626;11.410;2023-04-24T03:46:16;99436.91;;;10.96;74.31
5138;BME280;53959;53.626;11.410;2023-04-24T03:48:47;99437.50;;;10.83;74.31
5138;BME280;53959;53.626;11.410;2023-04-24T03:51:17;99434.66;;;10.86;74.20
5138;BME280;53959;53.626;11.410;2023-04-24T03:53:45;99440.78;;;10.88;74.00
5138;BME280;53959;53.626;11.410;2023-04-24T03:56:14;99443.78;;;11.00;74.05
5138;BME280;53959;53.626;11.410;2023-04-24T03:58:40;99438.84;;;10.92;74.12
5138;BME280;53959;53.626;11.410;2023-04-24T04:01:06;99438.91;;;10.90;74.35
5138;BME280;53959;53.626;11.410;2023-04-24T04:03:37;99435.25;;;10.93;74.30
5138;BME280;53959;53.626;11.410;2023-04-24T04:06:02;99446.38;;;10.82;74.30
5138;BME280;53959;53.626;11.410;2023-04-24T04:08:28;99444.38;;;10.87;74.50
5138;BME280;53959;53.626;11.410;2023-04-24T04:10:54;99448.25;;;10.80;74.73
5138;BME280;53959;53.626;11.410;2023-04-24T04:13:20;99459.94;;;10.76;74.81
5138;BME280;53959;53.626;11.410;2023-04-24T04:15:45;99461.03;;;10.72;74.76
5138;BME280;53959;53.626;11.410;2023-04-24T04:18:11;99447.78;;;10.70;74.99
5138;BME280;53959;53.626;11.410;2023-04-24T04:20:36;99450.22;;;10.75;74.58
5138;BME280;53959;53.626;11.410;2023-04-24T04:23:02;99448.25;;;10.80;74.32
5138;BME280;53959;53.626;11.410;2023-04-24T04:25:39;99448.25;;;10.80;74.39
5138;BME280;53959;53.626;11.410;2023-04-24T04:28:04;99448.38;;;10.77;74.31
5138;BME280;53959;53.626;11.410;2023-04-24T04:30:31;99452.75;;;10.78;74.40
5138;BME280;53959;53.626;11.410;2023-04-24T04:33:01;99459.28;;;10.71;74.56
5138;BME280;53959;53.626;11.410;2023-04-24T04:35:27;99449.59;;;10.70;74.62
5138;BME280;53959;53.626;11.410;2023-04-24T04:37:53;99457.28;;;10.76;74.50
5138;BME280;53959;53.626;11.410;2023-04-24T04:40:38;99459.41;;;10.68;75.25
5138;BME280;53959;53.626;11.410;2023-04-24T04:43:05;99461.75;;;10.76;74.62
5138;BME280;53959;53.626;11.410;2023-04-24T04:45:37;99463.47;;;10.77;74.21
5138;BME280;53959;53.626;11.410;2023-04-24T04:48:36;99465.53;;;10.70;74.42
5138;BME280;53959;53.626;11.410;2023-04-24T04:51:04;99452.88;;;10.75;74.22
5138;BME280;53959;53.626;11.410;2023-04-24T04:53:30;99463.47;;;10.77;74.22
5138;BME280;53959;53.626;11.410;2023-04-24T04:55:55;99460.13;;;10.72;73.73
5138;BME280;53959;53.626;11.410;2023-04-24T04:58:26;99454.91;;;10.70;73.24
5138;BME280;53959;53.626;11.410;2023-04-24T05:00:55;99452.09;;;10.73;73.41
5138;BME280;53959;53.626;11.410;2023-04-24T05:03:27;99459.22;;;10.73;73.16
5138;BME280;53959;53.626;11.410;2023-04-24T05:05:58;99456.91;;;10.65;73.98
5138;BME280;53959;53.626;11.410;2023-04-24T05:08:24;99463.13;;;10.64;74.06
5138;BME280;53959;53.626;11.410;2023-04-24T05:10:50;99460.47;;;10.64;73.54
5138;BME280;53959;53.626;11.410;2023-04-24T05:13:15;99460.06;;;10.73;72.70
5138;BME280;53959;53.626;11.410;2023-04-24T05:15:41;99462.00;;;10.69;72.83
5138;BME280;53959;53.626;11.410;2023-04-24T05:18:06;99469.72;;;10.76;73.11
5138;BME280;53959;53.626;11.410;2023-04-24T05:20:32;99457.28;;;10.76;71.82
5138;BME280;53959;53.626;11.410;2023-04-24T05:22:58;99465.38;;;10.73;71.96
5138;BME280;53959;53.626;11.410;2023-04-24T05:25:24;99465.44;;;10.72;71.87
5138;BME280;53959;53.626;11.410;2023-04-24T05:27:54;99468.09;;;10.72;72.43
5138;BME280;53959;53.626;11.410;2023-04-24T05:30:21;99468.03;;;10.73;72.38
5138;BME280;53959;53.626;11.410;2023-04-24T05:32:46;99473.00;;;10.81;72.13
5138;BME280;53959;53.626;11.410;2023-04-24T05:35:12;99467.13;;;10.93;72.02
5138;BME280;53959;53.626;11.410;2023-04-24T05:37:38;99466.13;;;10.96;71.21
5138;BME280;53959;53.626;11.410;2023-04-24T05:40:04;99478.63;;;11.12;70.63
5138;BME280;53959;53.626;11.410;2023-04-24T05:42:30;99477.69;;;11.13;69.94
5138;BME280;53959;53.626;11.410;2023-04-24T05:44:56;99475.44;;;11.23;69.95
5138;BME280;53959;53.626;11.410;2023-04-24T05:47:21;99472.75;;;11.06;69.98
5138;BME280;53959;53.626;11.410;2023-04-24T05:49:48;99472.03;;;11.21;70.17
5138;BME280;53959;53.626;11.410;2023-04-24T05:52:13;99478.69;;;11.11;69.92
5138;BME280;53959;53.626;11.410;2023-04-24T05:54:39;99482.47;;;11.05;70.19
5138;BME280;53959;53.626;11.410;2023-04-24T05:57:05;99481.50;;;11.08;70.30
5138;BME280;53959;53.626;11.410;2023-04-24T05:59:46;99480.28;;;11.15;69.96
5138;BME280;53959;53.626;11.410;2023-04-24T06:02:12;99482.28;;;11.10;70.04
5138;BME280;53959;53.626;11.410;2023-04-24T06:04:37;99477.97;;;11.07;70.29
5138;BME280;53959;53.626;11.410;2023-04-24T06:07:03;99483.28;;;11.07;70.11
5138;BME280;53959;53.626;11.410;2023-04-24T06:09:28;99483.16;;;11.10;70.31
5138;BME280;53959;53.626;11.410;2023-04-24T06:11:54;99488.47;;;11.10;69.97
5138;BME280;53959;53.626;11.410;2023-04-24T06:14:23;99490.03;;;11.14;70.37
5138;BME280;53959;53.626;11.410;2023-04-24T06:17:07;99492.75;;;11.13;70.71
5138;BME280;53959;53.626;11.410;2023-04-24T06:19:36;99495.59;;;11.10;70.70
5138;BME280;53959;53.626;11.410;2023-04-24T06:22:02;99498.59;;;11.02;70.83
5138;BME280;53959;53.626;11.410;2023-04-24T06:24:28;99492.34;;;11.03;70.74
5138;BME280;53959;53.626;11.410;2023-04-24T06:26:53;99491.84;;;11.14;70.24
5138;BME280;53959;53.626;11.410;2023-04-24T06:29:19;99493.47;;;11.16;70.07
5138;BME280;53959;53.626;11.410;2023-04-24T06:31:44;99495.78;;;11.24;70.10
5138;BME280;53959;53.626;11.410;2023-04-24T06:34:10;99501.63;;;11.32;70.09
5138;BME280;53959;53.626;11.410;2023-04-24T06:36:35;99498.00;;;11.33;69.77
5138;BME280;53959;53.626;11.410;2023-04-24T06:39:01;99489.69;;;11.41;69.77
5138;BME280;53959;53.626;11.410;2023-04-24T06:41:28;99498.50;;;11.41;69.90
5138;BME280;53959;53.626;11.410;2023-04-24T06:43:53;99497.00;;;11.36;70.02
5138;BME280;53959;53.626;11.410;2023-04-24T06:46:19;99498.50;;;11.41;68.89
5138;BME280;53959;53.626;11.410;2023-04-24T06:48:47;99490.44;;;11.43;68.80
5138;BME280;53959;53.626;11.410;2023-04-24T06:51:12;99503.09;;;11.38;68.20
5138;BME280;53959;53.626;11.410;2023-04-24T06:53:37;99493.06;;;11.45;68.21
5138;BME280;53959;53.626;11.410;2023-04-24T06:56:03;99498.38;;;11.45;68.37
5138;BME280;53959;53.626;11.410;2023-04-24T06:58:30;99492.22;;;11.61;68.28
5138;BME280;53959;53.626;11.410;2023-04-24T07:00:55;99489.41;;;11.64;67.98
5138;BME280;53959;53.626;11.410;2023-04-24T07:03:20;99494.69;;;11.66;67.76
5138;BME280;53959;53.626;11.410;2023-04-24T07:05:46;99486.03;;;11.61;66.70
5138;BME280;53959;53.626;11.410;2023-04-24T07:08:12;99490.22;;;11.66;65.74
5138;BME280;53959;53.626;11.410;2023-04-24T07:10:38;99482.06;;;11.88;65.08
5138;BME280;53959;53.626;11.410;2023-04-24T07:13:04;99488.34;;;12.05;64.97
5138;BME280;53959;53.626;11.410;2023-04-24T07:15:29;99489.50;;;12.17;64.39
5138;BME280;53959;53.626;11.410;2023-04-24T07:17:55;99484.44;;;12.12;64.49
5138;BME280;53959;53.626;11.410;2023-04-24T07:20:21;99482.63;;;12.30;64.31
5138;BME280;53959;53.626;11.410;2023-04-24T07:22:46;99493.19;;;12.14;63.63
5138;BME280;53959;53.626;11.410;2023-04-24T07:25:13;99499.84;;;12.40;63.38
5138;BME280;53959;53.626;11.410;2023-04-24T07:27:38;99493.75;;;12.71;63.23
5138;BME280;53959;53.626;11.410;2023-04-24T07:30:04;99484.41;;;12.64;62.29
5138;BME280;53959;53.626;11.410;2023-04-24T07:32:30;99495.50;;;12.72;62.05
5138;BME280;53959;53.626;11.410;2023-04-24T07:34:55;99491.38;;;12.82;61.86
5138;BME280;53959;53.626;11.410;2023-04-24T07:37:20;99487.31;;;13.08;61.36
5138;BME280;53959;53.626;11.410;2023-04-24T07:39:46;99491.75;;;13.25;61.44
5138;BME280;53959;53.626;11.410;2023-04-24T07:42:11;99487.66;;;13.35;60.23
5138;BME280;53959;53.626;11.410;2023-04-24T07:44:36;99496.56;;;13.66;59.76
5138;BME280;53959;53.626;11.410;2023-04-24T07:47:02;99488.69;;;15.26;55.04
5138;BME280;53959;53.626;11.410;2023-04-24T07:49:27;99500.16;;;15.84;52.74
5138;BME280;53959;53.626;11.410;2023-04-24T07:51:53;99498.50;;;16.61;49.59
5138;BME280;53959;53.626;11.410;2023-04-24T07:54:18;99493.78;;;16.65;49.16
5138;BME280;53959;53.626;11.410;2023-04-24T07:56:44;99485.44;;;16.95;48.46
5138;BME280;53959;53.626;11.410;2023-04-24T07:59:10;99488.56;;;16.76;48.45
5138;BME280;53959;53.626;11.410;2023-04-24T08:01:36;99487.72;;;16.10;49.37
5138;BME280;53959;53.626;11.410;2023-04-24T08:04:01;99485.31;;;17.95;46.32
5138;BME280;53959;53.626;11.410;2023-04-24T08:06:27;99485.31;;;17.95;46.60
5138;BME280;53959;53.626;11.410;2023-04-24T08:08:57;99483.91;;;16.65;48.14
5138;BME280;53959;53.626;11.410;2023-04-24T08:11:24;99484.13;;;15.97;50.08
5138;BME280;53959;53.626;11.410;2023-04-24T08:13:49;99467.59;;;16.43;48.07
5138;BME280;53959;53.626;11.410;2023-04-24T08:16:15;99495.50;;;16.13;49.20
5138;BME280;53959;53.626;11.410;2023-04-24T08:18:40;99491.75;;;16.03;50.01
5138;BME280;53959;53.626;11.410;2023-04-24T08:21:06;99485.28;;;14.81;53.13
5138;BME280;53959;53.626;11.410;2023-04-24T08:23:31;99490.44;;;15.96;50.47
5138;BME280;53959;53.626;11.410;2023-04-24T08:25:57;99499.94;;;16.80;47.96
5138;BME280;53959;53.626;11.410;2023-04-24T08:28:22;99488.47;;;16.78;48.37
5138;BME280;53959;53.626;11.410;2023-04-24T08:30:48;99492.50;;;15.08;52.48
5138;BME280;53959;53.626;11.410;2023-04-24T08:33:14;99501.44;;;16.18;51.03
5138;BME280;53959;53.626;11.410;2023-04-24T08:35:39;99484.22;;;15.13;53.46
5138;BME280;53959;53.626;11.410;2023-04-24T08:38:05;99498.38;;;14.42;55.17
5138;BME280;53959;53.626;11.410;2023-04-24T08:40:33;99491.47;;;14.23;55.59
5138;BME280;53959;53.626;11.410;2023-04-24T08:42:59;99496.66;;;13.80;55.05
5138;BME280;53959;53.626;11.410;2023-04-24T08:45:25;99501.78;;;13.99;55.29
5138;BME280;53959;53.626;11.410;2023-04-24T08:47:52;99499.59;;;14.80;53.34
5138;BME280;53959;53.626;11.410;2023-04-24T08:50:19;99508.31;;;17.01;48.77
5138;BME280;53959;53.626;11.410;2023-04-24T08:52:45;99503.41;;;16.29;50.87
5138;BME280;53959;53.626;11.410;2023-04-24T08:55:10;99491.47;;;14.96;54.00
5138;BME280;53959;53.626;11.410;2023-04-24T08:57:36;99499.84;;;15.89;52.21
5138;BME280;53959;53.626;11.410;2023-04-24T09:00:04;99498.91;;;17.32;48.26
5138;BME280;53959;53.626;11.410;2023-04-24T09:02:31;99495.81;;;17.25;47.93
5138;BME280;53959;53.626;11.410;2023-04-24T09:04:57;99507.72;;;16.57;49.42
5138;BME280;53959;53.626;11.410;2023-04-24T09:07:24;99501.03;;;15.15;52.30
5138;BME280;53959;53.626;11.410;2023-04-24T09:09:51;99501.78;;;15.17;52.50
5138;BME280;53959;53.626;11.410;2023-04-24T09:12:17;99503.41;;;14.76;54.18
5138;BME280;53959;53.626;11.410;2023-04-24T09:14:44;99504.28;;;14.47;54.36
5138;BME280;53959;53.626;11.410;2023-04-24T09:17:10;99501.31;;;14.37;54.91
5138;BME280;53959;53.626;11.410;2023-04-24T09:19:36;99496.50;;;14.58;54.51
5138;BME280;53959;53.626;11.410;2023-04-24T09:22:05;99502.47;;;14.63;53.27
5138;BME280;53959;53.626;11.410;2023-04-24T09:24:31;99500.44;;;14.52;53.93
5138;BME280;53959;53.626;11.410;2023-04-24T09:26:57;99504.94;;;14.52;53.41
5138;BME280;53959;53.626;11.410;2023-04-24T09:29:24;99496.41;;;14.15;53.80
5138;BME280;53959;53.626;11.410;2023-04-24T09:31:50;99500.88;;;14.15;54.38
5138;BME280;53959;53.626;11.410;2023-04-24T09:34:21;99503.03;;;14.08;54.56
5138;BME280;53959;53.626;11.410;2023-04-24T09:36:46;99502.13;;;13.93;55.31
5138;BME280;53959;53.626;11.410;2023-04-24T09:39:13;99502.97;;;13.94;55.26
5138;BME280;53959;53.626;11.410;2023-04-24T09:42:00;99501.53;;;13.72;56.00
5138;BME280;53959;53.626;11.410;2023-04-24T09:44:27;99504.91;;;13.60;56.42
5138;BME280;53959;53.626;11.410;2023-04-24T09:46:59;99501.09;;;13.80;56.45
5138;BME280;53959;53.626;11.410;2023-04-24T09:49:29;99506.03;;;13.72;57.08
5138;BME280;53959;53.626;11.410;2023-04-24T09:52:09;99501.91;;;13.66;57.15
5138;BME280;53959;53.626;11.410;2023-04-24T09:54:36;99502.25;;;14.06;56.24
5138;BME280;53959;53.626;11.410;2023-04-24T09:57:06;99496.16;;;14.34;56.17
5138;BME280;53959;53.626;11.410;2023-04-24T09:59:32;99494.53;;;14.31;55.94
5138;BME280;53959;53.626;11.410;2023-04-24T10:01:59;99503.31;;;14.48;55.46
5138;BME280;53959;53.626;11.410;2023-04-24T10:04:27;99494.38;;;14.93;54.27
5138;BME280;53959;53.626;11.410;2023-04-24T10:06:54;99504.66;;;14.85;53.64
5138;BME280;53959;53.626;11.410;2023-04-24T10:09:22;99503.09;;;14.67;54.50
5138;BME280;53959;53.626;11.410;2023-04-24T10:11:50;99499.88;;;14.62;54.60
5138;BME280;53959;53.626;11.410;2023-04-24T10:14:22;99499.03;;;14.75;54.65
5138;BME280;53959;53.626;11.410;2023-04-24T10:16:49;99510.59;;;14.16;55.17
5138;BME280;53959;53.626;11.410;2023-04-24T10:19:15;99512.47;;;13.99;56.09
5138;BME280;53959;53.626;11.410;2023-04-24T10:21:43;99511.44;;;13.86;56.75
5138;BME280;53959;53.626;11.410;2023-04-24T10:24:13;99506.94;;;13.87;56.79
5138;BME280;53959;53.626;11.410;2023-04-24T10:26:40;99513.41;;;13.82;57.35
5138;BME280;53959;53.626;11.410;2023-04-24T10:29:05;99512.31;;;13.71;57.50
5138;BME280;53959;53.626;11.410;2023-04-24T10:31:35;99515.41;;;13.63;57.87
5138;BME280;53959;53.626;11.410;2023-04-24T10:34:02;99519.28;;;13.73;58.08
5138;BME280;53959;53.626;11.410;2023-04-24T10:36:29;99519.97;;;13.61;58.61
5138;BME280;53959;53.626;11.410;2023-04-24T10:38:58;99520.75;;;13.63;58.47
5138;BME280;53959;53.626;11.410;2023-04-24T10:41:25;99528.66;;;13.65;58.70
5138;BME280;53959;53.626;11.410;2023-04-24T10:44:11;99527.91;;;13.63;58.17
5138;BME280;53959;53.626;11.410;2023-04-24T10:46:38;99527.13;;;13.60;58.04
5138;BME280;53959;53.626;11.410;2023-04-24T10:49:07;99527.28;;;13.42;58.26
5138;BME280;53959;53.626;11.410;2023-04-24T10:52:03;99533.13;;;13.32;58.55
5138;BME280;53959;53.626;11.410;2023-04-24T10:54:40;99534.09;;;13.14;59.25
5138;BME280;53959;53.626;11.410;2023-04-24T10:59:50;99528.63;;;13.17;60.09
5138;BME280;53959;53.626;11.410;2023-04-24T11:02:18;99531.50;;;13.12;60.33
5138;BME280;53959;53.626;11.410;2023-04-24T11:05:03;99537.44;;;13.02;61.05
5138;BME280;53959;53.626;11.410;2023-04-24T11:07:29;99543.63;;;13.02;61.02
5138;BME280;53959;53.626;11.410;2023-04-24T11:09:58;99547.25;;;13.01;61.23
5138;BME280;53959;53.626;11.410;2023-04-24T11:12:26;99549.03;;;13.01;61.34
5138;BME280;53959;53.626;11.410;2023-04-24T11:17:31;99556.25;;;12.99;61.50
5138;BME280;53959;53.626;11.410;2023-04-24T11:20:16;99549.69;;;12.88;60.99
5138;BME280;53959;53.626;11.410;2023-04-24T11:22:42;99552.19;;;12.92;60.14
5138;BME280;53959;53.626;11.410;2023-04-24T11:25:08;99547.72;;;12.92;60.09
5138;BME280;53959;53.626;11.410;2023-04-24T11:27:41;99546.06;;;12.89;59.92
5138;BME280;53959;53.626;11.410;2023-04-24T11:30:08;99545.88;;;12.77;60.06
5138;BME280;53959;53.626;11.410;2023-04-24T11:35:10;99546.84;;;13.09;59.99
5138;BME280;53959;53.626;11.410;2023-04-24T11:37:42;99547.16;;;13.52;59.45
5138;BME280;53959;53.626;11.410;2023-04-24T11:40:11;99543.94;;;14.08;58.48
5138;BME280;53959;53.626;11.410;2023-04-24T11:42:42;99540.47;;;14.22;57.74
5138;BME280;53959;53.626;11.410;2023-04-24T11:45:10;99544.81;;;14.09;57.38
5138;BME280;53959;53.626;11.410;2023-04-24T11:47:36;99552.19;;;14.20;56.97
5138;BME280;53959;53.626;11.410;2023-04-24T11:50:03;99546.25;;;14.61;55.89
5138;BME280;53959;53.626;11.410;2023-04-24T11:52:30;99548.31;;;15.28;54.97
5138;BME280;53959;53.626;11.410;2023-04-24T11:54:55;99538.00;;;14.94;54.60
5138;BME280;53959;53.626;11.410;2023-04-24T11:57:25;99539.94;;;14.62;55.11
5138;BME280;53959;53.626;11.410;2023-04-24T11:59:54;99532.50;;;14.52;54.25
5138;BME280;53959;53.626;11.410;2023-04-24T12:02:23;99526.69;;;14.60;53.48
5138;BME280;53959;53.626;11.410;2023-04-24T12:04:49;99524.03;;;14.89;52.56
5138;BME280;53959;53.626;11.410;2023-04-24T12:07:15;99523.69;;;15.23;51.77
5138;BME280;53959;53.626;11.410;2023-04-24T12:09:45;99523.56;;;15.11;51.52
5138;BME280;53959;53.626;11.410;2023-04-24T12:12:15;99524.16;;;15.01;50.78
5138;BME280;53959;53.626;11.410;2023-04-24T12:14:53;99528.22;;;14.93;51.55
5138;BME280;53959;53.626;11.410;2023-04-24T12:17:30;99531.78;;;15.36;51.36
5138;BME280;53959;53.626;11.410;2023-04-24T12:22:28;99534.53;;;14.63;51.97
5138;BME280;53959;53.626;11.410;2023-04-24T12:24:58;99521.56;;;14.86;52.10
5138;BME280;53959;53.626;11.410;2023-04-24T12:27:25;99530.31;;;14.73;51.60
5138;BME280;53959;53.626;11.410;2023-04-24T12:29:58;99521.06;;;15.22;49.54
5138;BME280;53959;53.626;11.410;2023-04-24T12:32:24;99519.06;;;15.25;48.65
5138;BME280;53959;53.626;11.410;2023-04-24T12:34:51;99509.28;;;15.94;47.31
5138;BME280;53959;53.626;11.410;2023-04-24T12:37:17;99510.81;;;15.57;46.53
5138;BME280;53959;53.626;11.410;2023-04-24T12:42:34;99502.13;;;15.95;44.21
5138;BME280;53959;53.626;11.410;2023-04-24T12:45:05;99513.72;;;16.48;43.31
5138;BME280;53959;53.626;11.410;2023-04-24T12:47:32;99513.66;;;17.13;41.53
5138;BME280;53959;53.626;11.410;2023-04-24T12:49:58;99490.88;;;17.32;41.22
5138;BME280;53959;53.626;11.410;2023-04-24T12:52:24;99504.06;;;16.45;42.47
5138;BME280;53959;53.626;11.410;2023-04-24T12:54:53;99501.94;;;16.63;42.43
5138;BME280;53959;53.626;11.410;2023-04-24T12:57:18;99509.59;;;17.08;41.57
5138;BME280;53959;53.626;11.410;2023-04-24T12:59:44;99503.53;;;16.66;42.28
5138;BME280;53959;53.626;11.410;2023-04-24T13:02:10;99509.13;;;16.10;44.20
5138;BME280;53959;53.626;11.410;2023-04-24T13:04:36;99507.69;;;15.50;44.89
5138;BME280;53959;53.626;11.410;2023-04-24T13:07:01;99510.78;;;15.71;45.52
5138;BME280;53959;53.626;11.410;2023-04-24T13:09:27;99516.38;;;15.54;45.50
5138;BME280;53959;53.626;11.410;2023-04-24T13:11:52;99509.94;;;16.38;43.75
5138;BME280;53959;53.626;11.410;2023-04-24T13:14:18;99508.03;;;16.00;43.42